Time,TemperatureF,DewpointF,PressureIn,WindDirection,WindDirectionDegrees,WindSpeedMPH,WindSpeedGustMPH,Humidity,HourlyPrecipIn,Conditions,Clouds,dailyrainin,SoftwareType,DateUTC
2013-09-23 00:01:00,53.6,42.9,29.86,NNW,330,10.0,10.0,67,0.00,,CLR,0.00,VWS V14.01,2013-09-23 04:01:00,
2013-09-23 00:10:00,53.6,42.9,29.86,NNW,330,10.0,10.0,67,0.00,,CLR,0.00,VWS V14.01,2013-09-23 04:10:00,
2013-09-23 00:17:00,53.6,42.9,29.86,NNW,330,10.0,10.0,67,0.00,,CLR,0.00,VWS V14.01,2013-09-23 04:17:00,
2013-09-23 00:22:00,53.6,42.9,29.86,NNW,330,10.0,10.0,67,0.00,,CLR,0.00,VWS V14.01,2013-09-23 04:22:00,
2013-09-23 00:27:00,53.6,42.9,29.86,NNW,330,10.0,10.0,67,0.00,,CLR,0.00,VWS V14.01,2013-09-23 04:27:00,
2013-09-23 00:34:00,53.6,42.9,29.86,NNW,330,10.0,10.0,67,0.00,,CLR,0.00,VWS V14.01,2013-09-23 04:34:00,
2013-09-23 00:39:00,53.6,42.9,29.86,NNW,330,10.0,10.0,67,0.00,,CLR,0.00,VWS V14.01,2013-09-23 04:39:00,
2013-09-23 00:46:00,53.6,42.9,29.86,NNW,330,10.0,10.0,67,0.00,,CLR,0.00,VWS V14.01,2013-09-23 04:46:00,
2013-09-23 00:51:00,53.6,42.9,29.86,NNW,330,10.0,10.0,67,0.00,,CLR,0.00,VWS V14.01,2013-09-23 04:51:00,
2013-09-23 00:56:00,53.6,42.9,29.86,NNW,330,10.0,10.0,67,0.00,,CLR,0.00,VWS V14.01,2013-09-23 04:56:00,
2013-09-23 01:01:00,51.8,42.7,29.86,NW,320,10.0,10.0,71,0.00,,CLR,0.00,VWS V14.01,2013-09-23 05:01:00,
2013-09-23 01:08:00,51.8,42.7,29.86,NW,320,10.0,10.0,71,0.00,,CLR,0.00,VWS V14.01,2013-09-23 05:08:00,
2013-09-23 01:14:00,51.8,42.7,29.86,NW,320,10.0,10.0,71,0.00,,CLR,0.00,VWS V14.01,2013-09-23 05:14:00,
2013-09-23 01:19:00,51.8,42.7,29.86,NW,320,10.0,10.0,71,0.00,,CLR,0.00,VWS V14.01,2013-09-23 05:19:00,
2013-09-23 01:24:00,51.8,42.7,29.86,NW,320,10.0,10.0,71,0.00,,CLR,0.00,VWS V14.01,2013-09-23 05:24:00,
2013-09-23 01:30:00,51.8,42.7,29.86,NW,320,10.0,10.0,71,0.00,,CLR,0.00,VWS V14.01,2013-09-23 05:30:00,
2013-09-23 01:36:00,51.8,42.7,29.86,NW,320,10.0,10.0,71,0.00,,CLR,0.00,VWS V14.01,2013-09-23 05:36:00,
2013-09-23 01:43:00,51.8,42.7,29.86,NW,320,10.0,10.0,71,0.00,,CLR,0.00,VWS V14.01,2013-09-23 05:43:00,
2013-09-23 01:49:00,51.8,42.7,29.86,NW,320,10.0,10.0,71,0.00,,CLR,0.00,VWS V14.01,2013-09-23 05:49:00,
2013-09-23 01:54:00,51.8,42.7,29.86,NW,320,10.0,10.0,71,0.00,,CLR,0.00,VWS V14.01,2013-09-23 05:54:00,
2013-09-23 01:56:00,51.8,42.7,29.87,NNW,330,11.0,11.0,71,0.00,,CLR,0.00,VWS V14.01,2013-09-23 05:56:00,
2013-09-23 01:59:00,51.8,42.7,29.87,NNW,330,11.0,11.0,71,0.00,,CLR,0.00,VWS V14.01,2013-09-23 05:59:00,
2013-09-23 02:04:00,51.8,42.7,29.87,NNW,330,11.0,11.0,71,0.00,,CLR,0.00,VWS V14.01,2013-09-23 06:04:00,
2013-09-23 02:11:00,51.8,42.7,29.87,NNW,330,11.0,11.0,71,0.00,,CLR,0.00,VWS V14.01,2013-09-23 06:11:00,
2013-09-23 02:18:00,51.8,42.7,29.87,NNW,330,11.0,11.0,71,0.00,,CLR,0.00,VWS V14.01,2013-09-23 06:18:00,
2013-09-23 02:23:00,51.8,42.7,29.87,NNW,330,11.0,11.0,71,0.00,,CLR,0.00,VWS V14.01,2013-09-23 06:23:00,
2013-09-23 02:28:00,51.8,42.7,29.87,NNW,330,11.0,11.0,71,0.00,,CLR,0.00,VWS V14.01,2013-09-23 06:28:00,
2013-09-23 02:38:00,51.8,42.7,29.87,NNW,330,11.0,11.0,71,0.00,,CLR,0.00,VWS V14.01,2013-09-23 06:38:00,
2013-09-23 02:43:00,51.8,42.7,29.87,NNW,330,11.0,11.0,71,0.00,,CLR,0.00,VWS V14.01,2013-09-23 06:43:00,
2013-09-23 02:48:00,51.8,42.7,29.87,NNW,330,11.0,11.0,71,0.00,,CLR,0.00,VWS V14.01,2013-09-23 06:48:00,
2013-09-23 02:53:00,51.8,42.7,29.87,NNW,330,11.0,11.0,71,0.00,,CLR,0.00,VWS V14.01,2013-09-23 06:53:00,
2013-09-23 02:56:00,50.0,44.7,29.87,NNW,330,8.0,8.0,82,0.00,,CLR,0.00,VWS V14.01,2013-09-23 06:56:00,
2013-09-23 02:58:00,51.8,42.7,29.87,NNW,330,11.0,11.0,71,0.00,,CLR,0.00,VWS V14.01,2013-09-23 06:58:00,
2013-09-23 03:03:00,50.0,44.7,29.87,NNW,330,8.0,8.0,82,0.00,,CLR,0.00,VWS V14.01,2013-09-23 07:03:00,
2013-09-23 03:08:00,50.0,44.7,29.87,NNW,330,8.0,8.0,82,0.00,,CLR,0.00,VWS V14.01,2013-09-23 07:08:00,
2013-09-23 03:13:00,50.0,44.7,29.87,NNW,330,8.0,8.0,82,0.00,,CLR,0.00,VWS V14.01,2013-09-23 07:13:00,
2013-09-23 03:20:00,50.0,44.7,29.87,NNW,330,8.0,8.0,82,0.00,,CLR,0.00,VWS V14.01,2013-09-23 07:20:00,
2013-09-23 03:25:00,50.0,44.7,29.87,NNW,330,8.0,8.0,82,0.00,,CLR,0.00,VWS V14.01,2013-09-23 07:25:00,
2013-09-23 03:31:00,50.0,44.7,29.87,NNW,330,8.0,8.0,82,0.00,,CLR,0.00,VWS V14.01,2013-09-23 07:31:00,
2013-09-23 03:36:00,50.0,44.7,29.87,NNW,330,8.0,8.0,82,0.00,,CLR,0.00,VWS V14.01,2013-09-23 07:36:00,
2013-09-23 03:42:00,50.0,44.7,29.87,NNW,330,8.0,8.0,82,0.00,,CLR,0.00,VWS V14.01,2013-09-23 07:42:00,
2013-09-23 03:47:00,50.0,44.7,29.87,NNW,330,8.0,8.0,82,0.00,,CLR,0.00,VWS V14.01,2013-09-23 07:47:00,
2013-09-23 03:52:00,50.0,44.7,29.87,NNW,330,8.0,8.0,82,0.00,,CLR,0.00,VWS V14.01,2013-09-23 07:52:00,
2013-09-23 03:56:00,50.0,42.7,29.89,NNW,330,10.0,10.0,76,0.00,,CLR,0.00,VWS V14.01,2013-09-23 07:56:00,
2013-09-23 03:57:00,50.0,44.7,29.87,NNW,330,8.0,8.0,82,0.00,,CLR,0.00,VWS V14.01,2013-09-23 07:57:00,
2013-09-23 04:02:00,50.0,42.7,29.89,NNW,330,10.0,10.0,76,0.00,,CLR,0.00,VWS V14.01,2013-09-23 08:02:00,
2013-09-23 04:13:00,50.0,42.7,29.89,NNW,330,10.0,10.0,76,0.00,,CLR,0.00,VWS V14.01,2013-09-23 08:13:00,
2013-09-23 04:18:00,50.0,42.7,29.89,NNW,330,10.0,10.0,76,0.00,,CLR,0.00,VWS V14.01,2013-09-23 08:18:00,
2013-09-23 04:23:00,50.0,42.7,29.89,NNW,330,10.0,10.0,76,0.00,,CLR,0.00,VWS V14.01,2013-09-23 08:23:00,
2013-09-23 04:32:00,50.0,42.7,29.89,NNW,330,10.0,10.0,76,0.00,,CLR,0.00,VWS V14.01,2013-09-23 08:32:00,
2013-09-23 04:37:00,50.0,42.7,29.89,NNW,330,10.0,10.0,76,0.00,,CLR,0.00,VWS V14.01,2013-09-23 08:37:00,
2013-09-23 04:42:00,50.0,42.7,29.89,NNW,330,10.0,10.0,76,0.00,,CLR,0.00,VWS V14.01,2013-09-23 08:42:00,
2013-09-23 04:49:00,50.0,42.7,29.89,NNW,330,10.0,10.0,76,0.00,,CLR,0.00,VWS V14.01,2013-09-23 08:49:00,
2013-09-23 04:54:00,50.0,42.7,29.89,NNW,330,10.0,10.0,76,0.00,,CLR,0.00,VWS V14.01,2013-09-23 08:54:00,
2013-09-23 04:56:00,48.2,41.0,29.90,NNW,330,6.0,6.0,76,0.00,,CLR,0.00,VWS V14.01,2013-09-23 08:56:00,
2013-09-23 04:59:00,50.0,42.7,29.89,NNW,330,10.0,10.0,76,0.00,,CLR,0.00,VWS V14.01,2013-09-23 08:59:00,
2013-09-23 05:04:00,48.2,41.0,29.90,NNW,330,6.0,6.0,76,0.00,,CLR,0.00,VWS V14.01,2013-09-23 09:04:00,
2013-09-23 05:09:00,48.2,41.0,29.90,NNW,330,6.0,6.0,76,0.00,,CLR,0.00,VWS V14.01,2013-09-23 09:09:00,
2013-09-23 05:19:00,48.2,41.0,29.90,NNW,330,6.0,6.0,76,0.00,,CLR,0.00,VWS V14.01,2013-09-23 09:19:00,
2013-09-23 05:25:00,48.2,41.0,29.90,NNW,330,6.0,6.0,76,0.00,,CLR,0.00,VWS V14.01,2013-09-23 09:25:00,
2013-09-23 05:30:00,48.2,41.0,29.90,NNW,330,6.0,6.0,76,0.00,,CLR,0.00,VWS V14.01,2013-09-23 09:30:00,
2013-09-23 05:38:00,48.2,41.0,29.90,NNW,330,6.0,6.0,76,0.00,,CLR,0.00,VWS V14.01,2013-09-23 09:38:00,
2013-09-23 05:43:00,48.2,41.0,29.90,NNW,330,6.0,6.0,76,0.00,,CLR,0.00,VWS V14.01,2013-09-23 09:43:00,
2013-09-23 05:48:00,48.2,41.0,29.90,NNW,330,6.0,6.0,76,0.00,,CLR,0.00,VWS V14.01,2013-09-23 09:48:00,
2013-09-23 05:53:00,48.2,41.0,29.90,NNW,330,6.0,6.0,76,0.00,,CLR,0.00,VWS V14.01,2013-09-23 09:53:00,
2013-09-23 05:56:00,46.4,39.3,29.92,NNW,330,6.0,6.0,76,0.00,,CLR,0.00,VWS V14.01,2013-09-23 09:56:00,
2013-09-23 05:58:00,48.2,41.0,29.90,NNW,330,6.0,6.0,76,0.00,,CLR,0.00,VWS V14.01,2013-09-23 09:58:00,
2013-09-23 06:03:00,46.4,39.3,29.92,NNW,330,6.0,6.0,76,0.00,,CLR,0.00,VWS V14.01,2013-09-23 10:03:00,
2013-09-23 06:08:00,46.4,39.3,29.92,NNW,330,6.0,6.0,76,0.00,,CLR,0.00,VWS V14.01,2013-09-23 10:08:00,
2013-09-23 06:14:00,46.4,39.3,29.92,NNW,330,6.0,6.0,76,0.00,,CLR,0.00,VWS V14.01,2013-09-23 10:14:00,
2013-09-23 06:19:00,46.4,39.3,29.92,NNW,330,6.0,6.0,76,0.00,,CLR,0.00,VWS V14.01,2013-09-23 10:19:00,
2013-09-23 06:25:00,46.4,39.3,29.92,NNW,330,6.0,6.0,76,0.00,,CLR,0.00,VWS V14.01,2013-09-23 10:25:00,
2013-09-23 06:30:00,46.4,39.3,29.92,NNW,330,6.0,6.0,76,0.00,,CLR,0.00,VWS V14.01,2013-09-23 10:30:00,
2013-09-23 06:36:00,46.4,39.3,29.92,NNW,330,6.0,6.0,76,0.00,,CLR,0.00,VWS V14.01,2013-09-23 10:36:00,
2013-09-23 06:42:00,46.4,39.3,29.92,NNW,330,6.0,6.0,76,0.00,,CLR,0.00,VWS V14.01,2013-09-23 10:42:00,
2013-09-23 06:47:00,46.4,39.3,29.92,NNW,330,6.0,6.0,76,0.00,,CLR,0.00,VWS V14.01,2013-09-23 10:47:00,
2013-09-23 06:52:00,46.4,39.3,29.92,NNW,330,6.0,6.0,76,0.00,,CLR,0.00,VWS V14.01,2013-09-23 10:52:00,
2013-09-23 06:56:00,48.2,41.0,29.94,NW,310,9.0,9.0,76,0.00,,CLR,0.00,VWS V14.01,2013-09-23 10:56:00,
2013-09-23 06:57:00,46.4,39.3,29.92,NNW,330,6.0,6.0,76,0.00,,CLR,0.00,VWS V14.01,2013-09-23 10:57:00,
2013-09-23 07:02:00,48.2,41.0,29.94,NW,310,9.0,9.0,76,0.00,,CLR,0.00,VWS V14.01,2013-09-23 11:02:00,
2013-09-23 07:07:00,48.2,41.0,29.94,NW,310,9.0,9.0,76,0.00,,CLR,0.00,VWS V14.01,2013-09-23 11:07:00,
2013-09-23 07:13:00,48.2,41.0,29.94,NW,310,9.0,9.0,76,0.00,,CLR,0.00,VWS V14.01,2013-09-23 11:13:00,
2013-09-23 07:18:00,48.2,41.0,29.94,NW,310,9.0,9.0,76,0.00,,CLR,0.00,VWS V14.01,2013-09-23 11:18:00,
2013-09-23 07:23:00,48.2,41.0,29.94,NW,310,9.0,9.0,76,0.00,,CLR,0.00,VWS V14.01,2013-09-23 11:23:00,
2013-09-23 07:38:00,48.2,41.0,29.94,NW,310,9.0,9.0,76,0.00,,CLR,0.00,VWS V14.01,2013-09-23 11:38:00,
2013-09-23 07:43:00,48.2,41.0,29.94,NW,310,9.0,9.0,76,0.00,,CLR,0.00,VWS V14.01,2013-09-23 11:43:00,
2013-09-23 07:50:00,48.2,41.0,29.94,NW,310,9.0,9.0,76,0.00,,CLR,0.00,VWS V14.01,2013-09-23 11:50:00,
2013-09-23 07:55:00,48.2,41.0,29.94,NW,310,9.0,9.0,76,0.00,,CLR,0.00,VWS V14.01,2013-09-23 11:55:00,
2013-09-23 07:56:00,50.0,42.7,29.95,NW,310,9.0,9.0,76,0.00,,CLR,0.00,VWS V14.01,2013-09-23 11:56:00,
2013-09-23 08:00:00,48.2,41.0,29.94,NW,310,9.0,9.0,76,0.00,,CLR,0.00,VWS V14.01,2013-09-23 12:00:00,
2013-09-23 08:05:00,50.0,42.7,29.95,NW,310,9.0,9.0,76,0.00,,CLR,0.00,VWS V14.01,2013-09-23 12:05:00,
2013-09-23 08:12:00,50.0,42.7,29.95,NW,310,9.0,9.0,76,0.00,,CLR,0.00,VWS V14.01,2013-09-23 12:12:00,
2013-09-23 08:19:00,50.0,42.7,29.95,NW,310,9.0,9.0,76,0.00,,CLR,0.00,VWS V14.01,2013-09-23 12:19:00,
2013-09-23 08:27:00,50.0,42.7,29.95,NW,310,9.0,9.0,76,0.00,,CLR,0.00,VWS V14.01,2013-09-23 12:27:00,
2013-09-23 08:33:00,50.0,42.7,29.95,NW,310,9.0,9.0,76,0.00,,CLR,0.00,VWS V14.01,2013-09-23 12:33:00,
2013-09-23 08:43:00,50.0,42.7,29.95,NW,310,9.0,9.0,76,0.00,,CLR,0.00,VWS V14.01,2013-09-23 12:43:00,
2013-09-23 08:48:00,50.0,42.7,29.95,NW,310,9.0,9.0,76,0.00,,CLR,0.00,VWS V14.01,2013-09-23 12:48:00,
2013-09-23 08:53:00,50.0,42.7,29.95,NW,310,9.0,9.0,76,0.00,,CLR,0.00,VWS V14.01,2013-09-23 12:53:00,
2013-09-23 08:56:00,53.6,42.9,29.95,WNW,300,9.0,9.0,67,0.00,,CLR,0.00,VWS V14.01,2013-09-23 12:56:00,
2013-09-23 08:58:00,50.0,42.7,29.95,NW,310,9.0,9.0,76,0.00,,CLR,0.00,VWS V14.01,2013-09-23 12:58:00,
2013-09-23 09:03:00,53.6,42.9,29.95,WNW,300,9.0,9.0,67,0.00,,CLR,0.00,VWS V14.01,2013-09-23 13:03:00,
2013-09-23 09:12:00,53.6,42.9,29.95,WNW,300,9.0,9.0,67,0.00,,CLR,0.00,VWS V14.01,2013-09-23 13:12:00,
2013-09-23 09:17:00,53.6,42.9,29.95,WNW,300,9.0,9.0,67,0.00,,CLR,0.00,VWS V14.01,2013-09-23 13:17:00,
2013-09-23 09:22:00,53.6,42.9,29.95,WNW,300,9.0,9.0,67,0.00,,CLR,0.00,VWS V14.01,2013-09-23 13:22:00,
2013-09-23 09:30:00,53.6,42.9,29.95,WNW,300,9.0,9.0,67,0.00,,CLR,0.00,VWS V14.01,2013-09-23 13:30:00,
2013-09-23 09:37:00,53.6,42.9,29.95,WNW,300,9.0,9.0,67,0.00,,CLR,0.00,VWS V14.01,2013-09-23 13:37:00,
2013-09-23 09:46:00,53.6,42.9,29.95,WNW,300,9.0,9.0,67,0.00,,CLR,0.00,VWS V14.01,2013-09-23 13:46:00,
2013-09-23 09:51:00,53.6,42.9,29.95,WNW,300,9.0,9.0,67,0.00,,CLR,0.00,VWS V14.01,2013-09-23 13:51:00,
2013-09-23 09:56:00,53.6,42.9,29.95,WNW,300,9.0,9.0,67,0.00,,CLR,0.00,VWS V14.01,2013-09-23 13:56:00,
2013-09-23 10:01:00,57.2,43.0,29.95,NNW,340,8.0,8.0,59,0.00,,CLR,0.00,VWS V14.01,2013-09-23 14:01:00,
2013-09-23 10:06:00,57.2,43.0,29.95,NNW,340,8.0,8.0,59,0.00,,CLR,0.00,VWS V14.01,2013-09-23 14:06:00,
2013-09-23 10:12:00,57.2,43.0,29.95,NNW,340,8.0,8.0,59,0.00,,CLR,0.00,VWS V14.01,2013-09-23 14:12:00,
2013-09-23 10:19:00,57.2,43.0,29.95,NNW,340,8.0,8.0,59,0.00,,CLR,0.00,VWS V14.01,2013-09-23 14:19:00,
2013-09-23 10:24:00,57.2,43.0,29.95,NNW,340,8.0,8.0,59,0.00,,CLR,0.00,VWS V14.01,2013-09-23 14:24:00,
2013-09-23 10:30:00,57.2,43.0,29.95,NNW,340,8.0,8.0,59,0.00,,CLR,0.00,VWS V14.01,2013-09-23 14:30:00,
2013-09-23 10:37:00,57.2,43.0,29.95,NNW,340,8.0,8.0,59,0.00,,CLR,0.00,VWS V14.01,2013-09-23 14:37:00,
2013-09-23 10:42:00,57.2,43.0,29.95,NNW,340,8.0,8.0,59,0.00,,CLR,0.00,VWS V14.01,2013-09-23 14:42:00,
2013-09-23 10:48:00,57.2,43.0,29.95,NNW,340,8.0,8.0,59,0.00,,CLR,0.00,VWS V14.01,2013-09-23 14:48:00,
2013-09-23 10:53:00,57.2,43.0,29.95,NNW,340,8.0,8.0,59,0.00,,CLR,0.00,VWS V14.01,2013-09-23 14:53:00,
2013-09-23 10:56:00,59.0,42.9,29.94,NNW,330,13.0,13.0,55,0.00,,CLR,0.00,VWS V14.01,2013-09-23 14:56:00,
2013-09-23 10:58:00,57.2,43.0,29.95,NNW,340,8.0,8.0,59,0.00,,CLR,0.00,VWS V14.01,2013-09-23 14:58:00,
2013-09-23 11:03:00,59.0,42.9,29.94,NNW,330,13.0,13.0,55,0.00,,CLR,0.00,VWS V14.01,2013-09-23 15:03:00,
2013-09-23 11:08:00,59.0,42.9,29.94,NNW,330,13.0,13.0,55,0.00,,CLR,0.00,VWS V14.01,2013-09-23 15:08:00,
2013-09-23 11:14:00,59.0,42.9,29.94,NNW,330,13.0,13.0,55,0.00,,CLR,0.00,VWS V14.01,2013-09-23 15:14:00,
2013-09-23 11:19:00,59.0,42.9,29.94,NNW,330,13.0,13.0,55,0.00,,CLR,0.00,VWS V14.01,2013-09-23 15:19:00,
2013-09-23 11:24:00,59.0,42.9,29.94,NNW,330,13.0,13.0,55,0.00,,CLR,0.00,VWS V14.01,2013-09-23 15:24:00,
2013-09-23 11:29:00,59.0,42.9,29.94,NNW,330,13.0,13.0,55,0.00,,CLR,0.00,VWS V14.01,2013-09-23 15:29:00,
2013-09-23 11:41:00,59.0,42.9,29.94,NNW,330,13.0,13.0,55,0.00,,CLR,0.00,VWS V14.01,2013-09-23 15:41:00,
2013-09-23 11:46:00,59.0,42.9,29.94,NNW,330,13.0,13.0,55,0.00,,CLR,0.00,VWS V14.01,2013-09-23 15:46:00,
2013-09-23 11:51:00,59.0,42.9,29.94,NNW,330,13.0,13.0,55,0.00,,CLR,0.00,VWS V14.01,2013-09-23 15:51:00,
2013-09-23 11:56:00,59.0,42.9,29.94,NNW,330,13.0,13.0,55,0.00,,CLR,0.00,VWS V14.01,2013-09-23 15:56:00,
2013-09-23 12:01:00,60.8,42.6,29.94,NNW,340,13.0,13.0,51,0.00,,CLR,0.00,VWS V14.01,2013-09-23 16:01:00,
2013-09-23 12:06:00,60.8,42.6,29.94,NNW,340,13.0,13.0,51,0.00,,CLR,0.00,VWS V14.01,2013-09-23 16:06:00,
2013-09-23 12:14:00,60.8,42.6,29.94,NNW,340,13.0,13.0,51,0.00,,CLR,0.00,VWS V14.01,2013-09-23 16:14:00,
2013-09-23 12:21:00,60.8,42.6,29.94,NNW,340,13.0,13.0,51,0.00,,CLR,0.00,VWS V14.01,2013-09-23 16:21:00,
2013-09-23 12:26:00,60.8,42.6,29.94,NNW,340,13.0,13.0,51,0.00,,CLR,0.00,VWS V14.01,2013-09-23 16:26:00,
2013-09-23 12:32:00,60.8,42.6,29.94,NNW,340,13.0,13.0,51,0.00,,CLR,0.00,VWS V14.01,2013-09-23 16:32:00,
2013-09-23 12:40:00,60.8,42.6,29.94,NNW,340,13.0,13.0,51,0.00,,CLR,0.00,VWS V14.01,2013-09-23 16:40:00,
2013-09-23 12:45:00,60.8,42.6,29.94,NNW,340,13.0,13.0,51,0.00,,CLR,0.00,VWS V14.01,2013-09-23 16:45:00,
2013-09-23 12:51:00,60.8,42.6,29.94,NNW,340,13.0,13.0,51,0.00,,CLR,0.00,VWS V14.01,2013-09-23 16:51:00,
2013-09-23 12:56:00,60.8,42.6,29.94,NNW,340,13.0,13.0,51,0.00,,CLR,0.00,VWS V14.01,2013-09-23 16:56:00,
2013-09-23 13:02:00,62.6,42.7,29.93,NW,310,14.0,14.0,48,0.00,,CLR,0.00,VWS V14.01,2013-09-23 17:02:00,
2013-09-23 13:07:00,62.6,42.7,29.93,NW,310,14.0,14.0,48,0.00,,CLR,0.00,VWS V14.01,2013-09-23 17:07:00,
2013-09-23 13:14:00,62.6,42.7,29.93,NW,310,14.0,14.0,48,0.00,,CLR,0.00,VWS V14.01,2013-09-23 17:14:00,
2013-09-23 13:20:00,62.6,42.7,29.93,NW,310,14.0,14.0,48,0.00,,CLR,0.00,VWS V14.01,2013-09-23 17:20:00,
2013-09-23 13:29:00,62.6,42.7,29.93,NW,310,14.0,14.0,48,0.00,,CLR,0.00,VWS V14.01,2013-09-23 17:29:00,
2013-09-23 13:34:00,62.6,42.7,29.93,NW,310,14.0,14.0,48,0.00,,CLR,0.00,VWS V14.01,2013-09-23 17:34:00,
2013-09-23 13:39:00,62.6,42.7,29.93,NW,310,14.0,14.0,48,0.00,,CLR,0.00,VWS V14.01,2013-09-23 17:39:00,
2013-09-23 13:50:00,62.6,42.7,29.93,NW,310,14.0,14.0,48,0.00,,CLR,0.00,VWS V14.01,2013-09-23 17:50:00,
2013-09-23 13:55:00,62.6,42.7,29.93,NW,310,14.0,14.0,48,0.00,,CLR,0.00,VWS V14.01,2013-09-23 17:55:00,
2013-09-23 13:56:00,64.4,44.8,29.93,North,350,11.0,11.0,49,0.00,,CLR,0.00,VWS V14.01,2013-09-23 17:56:00,
2013-09-23 14:00:00,62.6,42.7,29.93,NW,310,14.0,14.0,48,0.00,,CLR,0.00,VWS V14.01,2013-09-23 18:00:00,
2013-09-23 14:05:00,64.4,44.8,29.93,North,350,11.0,11.0,49,0.00,,CLR,0.00,VWS V14.01,2013-09-23 18:05:00,
2013-09-23 14:12:00,64.4,44.8,29.93,North,350,11.0,11.0,49,0.00,,CLR,0.00,VWS V14.01,2013-09-23 18:12:00,
2013-09-23 14:17:00,64.4,44.8,29.93,North,350,11.0,11.0,49,0.00,,CLR,0.00,VWS V14.01,2013-09-23 18:17:00,
2013-09-23 14:30:00,64.4,44.8,29.93,North,350,11.0,11.0,49,0.00,,CLR,0.00,VWS V14.01,2013-09-23 18:30:00,
2013-09-23 14:37:00,64.4,44.8,29.93,North,350,11.0,11.0,49,0.00,,CLR,0.00,VWS V14.01,2013-09-23 18:37:00,
2013-09-23 14:43:00,64.4,44.8,29.93,North,350,11.0,11.0,49,0.00,,CLR,0.00,VWS V14.01,2013-09-23 18:43:00,
2013-09-23 14:48:00,64.4,44.8,29.93,North,350,11.0,11.0,49,0.00,,CLR,0.00,VWS V14.01,2013-09-23 18:48:00,
2013-09-23 14:53:00,64.4,44.8,29.93,North,350,11.0,11.0,49,0.00,,CLR,0.00,VWS V14.01,2013-09-23 18:53:00,
2013-09-23 14:56:00,64.4,44.8,29.92,North,350,11.0,11.0,49,0.00,,CLR,0.00,VWS V14.01,2013-09-23 18:56:00,
2013-09-23 14:58:00,64.4,44.8,29.93,North,350,11.0,11.0,49,0.00,,CLR,0.00,VWS V14.01,2013-09-23 18:58:00,
2013-09-23 15:03:00,64.4,44.8,29.92,North,350,11.0,11.0,49,0.00,,CLR,0.00,VWS V14.01,2013-09-23 19:03:00,
2013-09-23 15:08:00,64.4,44.8,29.92,North,350,11.0,11.0,49,0.00,,CLR,0.00,VWS V14.01,2013-09-23 19:08:00,
2013-09-23 15:15:00,64.4,44.8,29.92,North,350,11.0,11.0,49,0.00,,CLR,0.00,VWS V14.01,2013-09-23 19:15:00,
2013-09-23 15:21:00,64.4,44.8,29.92,North,350,11.0,11.0,49,0.00,,CLR,0.00,VWS V14.01,2013-09-23 19:21:00,
2013-09-23 15:36:00,64.4,44.8,29.92,North,350,11.0,11.0,49,0.00,,CLR,0.00,VWS V14.01,2013-09-23 19:36:00,
2013-09-23 15:41:00,64.4,44.8,29.92,North,350,11.0,11.0,49,0.00,,CLR,0.00,VWS V14.01,2013-09-23 19:41:00,
2013-09-23 15:49:00,64.4,44.8,29.92,North,350,11.0,11.0,49,0.00,,CLR,0.00,VWS V14.01,2013-09-23 19:49:00,
2013-09-23 15:54:00,64.4,44.8,29.92,North,350,11.0,11.0,49,0.00,,CLR,0.00,VWS V14.01,2013-09-23 19:54:00,
2013-09-23 15:56:00,64.4,44.8,29.91,NW,320,10.0,10.0,49,0.00,,CLR,0.00,VWS V14.01,2013-09-23 19:56:00,
2013-09-23 15:59:00,64.4,44.8,29.92,North,350,11.0,11.0,49,0.00,,CLR,0.00,VWS V14.01,2013-09-23 19:59:00,
2013-09-23 16:04:00,64.4,44.8,29.91,NW,320,10.0,10.0,49,0.00,,CLR,0.00,VWS V14.01,2013-09-23 20:04:00,
2013-09-23 16:09:00,64.4,44.8,29.91,NW,320,10.0,10.0,49,0.00,,CLR,0.00,VWS V14.01,2013-09-23 20:09:00,
2013-09-23 16:14:00,64.4,44.8,29.91,NW,320,10.0,10.0,49,0.00,,CLR,0.00,VWS V14.01,2013-09-23 20:14:00,
2013-09-23 16:19:00,64.4,44.8,29.91,NW,320,10.0,10.0,49,0.00,,CLR,0.00,VWS V14.01,2013-09-23 20:19:00,
2013-09-23 16:27:00,64.4,44.8,29.91,NW,320,10.0,10.0,49,0.00,,CLR,0.00,VWS V14.01,2013-09-23 20:27:00,
2013-09-23 16:32:00,64.4,44.8,29.91,NW,320,10.0,10.0,49,0.00,,CLR,0.00,VWS V14.01,2013-09-23 20:32:00,
2013-09-23 16:37:00,64.4,44.8,29.91,NW,320,10.0,10.0,49,0.00,,CLR,0.00,VWS V14.01,2013-09-23 20:37:00,
2013-09-23 16:44:00,64.4,44.8,29.91,NW,320,10.0,10.0,49,0.00,,CLR,0.00,VWS V14.01,2013-09-23 20:44:00,
2013-09-23 16:49:00,64.4,44.8,29.91,NW,320,10.0,10.0,49,0.00,,CLR,0.00,VWS V14.01,2013-09-23 20:49:00,
2013-09-23 16:54:00,64.4,44.8,29.91,NW,320,10.0,10.0,49,0.00,,CLR,0.00,VWS V14.01,2013-09-23 20:54:00,
2013-09-23 16:56:00,64.4,44.8,29.92,NW,320,9.0,9.0,49,0.00,,CLR,0.00,VWS V14.01,2013-09-23 20:56:00,
2013-09-23 16:59:00,64.4,44.8,29.91,NW,320,10.0,10.0,49,0.00,,CLR,0.00,VWS V14.01,2013-09-23 20:59:00,
2013-09-23 17:04:00,64.4,44.8,29.92,NW,320,9.0,9.0,49,0.00,,CLR,0.00,VWS V14.01,2013-09-23 21:04:00,
2013-09-23 17:09:00,64.4,44.8,29.92,NW,320,9.0,9.0,49,0.00,,CLR,0.00,VWS V14.01,2013-09-23 21:09:00,
2013-09-23 17:14:00,64.4,44.8,29.92,NW,320,9.0,9.0,49,0.00,,CLR,0.00,VWS V14.01,2013-09-23 21:14:00,
2013-09-23 17:26:00,64.4,44.8,29.92,NW,320,9.0,9.0,49,0.00,,CLR,0.00,VWS V14.01,2013-09-23 21:26:00,
2013-09-23 17:38:00,64.4,44.8,29.92,NW,320,9.0,9.0,49,0.00,,CLR,0.00,VWS V14.01,2013-09-23 21:38:00,
2013-09-23 17:43:00,64.4,44.8,29.92,NW,320,9.0,9.0,49,0.00,,CLR,0.00,VWS V14.01,2013-09-23 21:43:00,
2013-09-23 17:50:00,64.4,44.8,29.92,NW,320,9.0,9.0,49,0.00,,CLR,0.00,VWS V14.01,2013-09-23 21:50:00,
2013-09-23 17:55:00,64.4,44.8,29.92,NW,320,9.0,9.0,49,0.00,,CLR,0.00,VWS V14.01,2013-09-23 21:55:00,
2013-09-23 17:56:00,62.6,44.8,29.94,NW,320,10.0,10.0,52,0.00,,CLR,0.00,VWS V14.01,2013-09-23 21:56:00,
2013-09-23 18:00:00,62.6,44.8,29.94,NW,320,10.0,10.0,52,0.00,,CLR,0.00,VWS V14.01,2013-09-23 22:00:00,
2013-09-23 18:05:00,62.6,44.8,29.94,NW,320,10.0,10.0,52,0.00,,CLR,0.00,VWS V14.01,2013-09-23 22:05:00,
2013-09-23 18:13:00,62.6,44.8,29.94,NW,320,10.0,10.0,52,0.00,,CLR,0.00,VWS V14.01,2013-09-23 22:13:00,
2013-09-23 18:23:00,62.6,44.8,29.94,NW,320,10.0,10.0,52,0.00,,CLR,0.00,VWS V14.01,2013-09-23 22:23:00,
2013-09-23 18:29:00,62.6,44.8,29.94,NW,320,10.0,10.0,52,0.00,,CLR,0.00,VWS V14.01,2013-09-23 22:29:00,
2013-09-23 18:34:00,62.6,44.8,29.94,NW,320,10.0,10.0,52,0.00,,CLR,0.00,VWS V14.01,2013-09-23 22:34:00,
2013-09-23 18:46:00,62.6,44.8,29.94,NW,320,10.0,10.0,52,0.00,,CLR,0.00,VWS V14.01,2013-09-23 22:46:00,
2013-09-23 18:51:00,62.6,44.8,29.94,NW,320,10.0,10.0,52,0.00,,CLR,0.00,VWS V14.01,2013-09-23 22:51:00,
2013-09-23 18:56:00,62.6,44.8,29.94,NW,320,10.0,10.0,52,0.00,,CLR,0.00,VWS V14.01,2013-09-23 22:56:00,
2013-09-23 19:01:00,57.2,46.4,29.96,WNW,290,4.0,4.0,67,0.00,,CLR,0.00,VWS V14.01,2013-09-23 23:01:00,
2013-09-23 19:07:00,57.2,46.4,29.96,WNW,290,4.0,4.0,67,0.00,,CLR,0.00,VWS V14.01,2013-09-23 23:07:00,
2013-09-23 19:13:00,57.2,46.4,29.96,WNW,290,4.0,4.0,67,0.00,,CLR,0.00,VWS V14.01,2013-09-23 23:13:00,
2013-09-23 19:19:00,57.2,46.4,29.96,WNW,290,4.0,4.0,67,0.00,,CLR,0.00,VWS V14.01,2013-09-23 23:19:00,
2013-09-23 19:24:00,57.2,46.4,29.96,WNW,290,4.0,4.0,67,0.00,,CLR,0.00,VWS V14.01,2013-09-23 23:24:00,
2013-09-23 19:29:00,57.2,46.4,29.96,WNW,290,4.0,4.0,67,0.00,,CLR,0.00,VWS V14.01,2013-09-23 23:29:00,
2013-09-23 19:34:00,57.2,46.4,29.96,WNW,290,4.0,4.0,67,0.00,,CLR,0.00,VWS V14.01,2013-09-23 23:34:00,
2013-09-23 19:45:00,57.2,46.4,29.96,WNW,290,4.0,4.0,67,0.00,,CLR,0.00,VWS V14.01,2013-09-23 23:45:00,
2013-09-23 19:50:00,57.2,46.4,29.96,WNW,290,4.0,4.0,67,0.00,,CLR,0.00,VWS V14.01,2013-09-23 23:50:00,
2013-09-23 19:55:00,57.2,46.4,29.96,WNW,290,4.0,4.0,67,0.00,,CLR,0.00,VWS V14.01,2013-09-23 23:55:00,
2013-09-23 19:56:00,55.4,46.5,29.98,NW,320,5.0,5.0,72,0.00,,CLR,0.00,VWS V14.01,2013-09-23 23:56:00,
2013-09-23 20:00:00,55.4,46.5,29.98,NW,320,5.0,5.0,72,0.00,,CLR,0.00,VWS V14.01,2013-09-24 00:00:00,
2013-09-23 20:05:00,55.4,46.5,29.98,NW,320,5.0,5.0,72,0.00,,CLR,0.00,VWS V14.01,2013-09-24 00:05:00,
2013-09-23 20:22:00,55.4,46.5,29.98,NW,320,5.0,5.0,72,0.00,,CLR,0.00,VWS V14.01,2013-09-24 00:22:00,
2013-09-23 20:27:00,55.4,46.5,29.98,NW,320,5.0,5.0,72,0.00,,CLR,0.00,VWS V14.01,2013-09-24 00:27:00,
2013-09-23 20:34:00,55.4,46.5,29.98,NW,320,5.0,5.0,72,0.00,,CLR,0.00,VWS V14.01,2013-09-24 00:34:00,
2013-09-23 20:39:00,55.4,46.5,29.98,NW,320,5.0,5.0,72,0.00,,CLR,0.00,VWS V14.01,2013-09-24 00:39:00,
2013-09-23 20:44:00,55.4,46.5,29.98,NW,320,5.0,5.0,72,0.00,,CLR,0.00,VWS V14.01,2013-09-24 00:44:00,
2013-09-23 20:49:00,55.4,46.5,29.98,NW,320,5.0,5.0,72,0.00,,CLR,0.00,VWS V14.01,2013-09-24 00:49:00,
2013-09-23 20:54:00,55.4,46.5,29.98,NW,320,5.0,5.0,72,0.00,,CLR,0.00,VWS V14.01,2013-09-24 00:54:00,
2013-09-23 20:56:00,53.6,44.4,29.98,NNW,340,6.0,6.0,71,0.00,,CLR,0.00,VWS V14.01,2013-09-24 00:56:00,
2013-09-23 20:59:00,55.4,46.5,29.98,NW,320,5.0,5.0,72,0.00,,CLR,0.00,VWS V14.01,2013-09-24 00:59:00,
2013-09-23 21:04:00,53.6,44.4,29.98,NNW,340,6.0,6.0,71,0.00,,CLR,0.00,VWS V14.01,2013-09-24 01:04:00,
2013-09-23 21:10:00,53.6,44.4,29.98,NNW,340,6.0,6.0,71,0.00,,CLR,0.00,VWS V14.01,2013-09-24 01:10:00,
2013-09-23 21:15:00,53.6,44.4,29.98,NNW,340,6.0,6.0,71,0.00,,CLR,0.00,VWS V14.01,2013-09-24 01:15:00,
2013-09-23 21:20:00,53.6,44.4,29.98,NNW,340,6.0,6.0,71,0.00,,CLR,0.00,VWS V14.01,2013-09-24 01:20:00,
2013-09-23 21:28:00,53.6,44.4,29.98,NNW,340,6.0,6.0,71,0.00,,CLR,0.00,VWS V14.01,2013-09-24 01:28:00,
2013-09-23 21:33:00,53.6,44.4,29.98,NNW,340,6.0,6.0,71,0.00,,CLR,0.00,VWS V14.01,2013-09-24 01:33:00,
2013-09-23 21:39:00,53.6,44.4,29.98,NNW,340,6.0,6.0,71,0.00,,CLR,0.00,VWS V14.01,2013-09-24 01:39:00,
2013-09-23 21:45:00,53.6,44.4,29.98,NNW,340,6.0,6.0,71,0.00,,CLR,0.00,VWS V14.01,2013-09-24 01:45:00,
2013-09-23 21:51:00,53.6,44.4,29.98,NNW,340,6.0,6.0,71,0.00,,CLR,0.00,VWS V14.01,2013-09-24 01:51:00,
2013-09-23 21:56:00,53.6,44.4,29.98,NNW,340,6.0,6.0,71,0.00,,CLR,0.00,VWS V14.01,2013-09-24 01:56:00,
2013-09-23 22:01:00,53.6,46.6,30.00,North,0,0.0,0.0,77,0.00,,CLR,0.00,VWS V14.01,2013-09-24 02:01:00,
2013-09-23 22:07:00,53.6,46.6,30.00,North,0,0.0,0.0,77,0.00,,CLR,0.00,VWS V14.01,2013-09-24 02:07:00,
2013-09-23 22:13:00,53.6,46.6,30.00,North,0,0.0,0.0,77,0.00,,CLR,0.00,VWS V14.01,2013-09-24 02:13:00,
2013-09-23 22:21:00,53.6,46.6,30.00,North,0,0.0,0.0,77,0.00,,CLR,0.00,VWS V14.01,2013-09-24 02:21:00,
2013-09-23 22:26:00,53.6,46.6,30.00,North,0,0.0,0.0,77,0.00,,CLR,0.00,VWS V14.01,2013-09-24 02:26:00,
2013-09-23 22:31:00,53.6,46.6,30.00,North,0,0.0,0.0,77,0.00,,CLR,0.00,VWS V14.01,2013-09-24 02:31:00,
2013-09-23 22:36:00,53.6,46.6,30.00,North,0,0.0,0.0,77,0.00,,CLR,0.00,VWS V14.01,2013-09-24 02:36:00,
2013-09-23 22:44:00,53.6,46.6,30.00,North,0,0.0,0.0,77,0.00,,CLR,0.00,VWS V14.01,2013-09-24 02:44:00,
2013-09-23 22:51:00,53.6,46.6,30.00,North,0,0.0,0.0,77,0.00,,CLR,0.00,VWS V14.01,2013-09-24 02:51:00,
2013-09-23 22:56:00,53.6,46.6,30.00,North,0,0.0,0.0,77,0.00,,CLR,0.00,VWS V14.01,2013-09-24 02:56:00,
2013-09-23 23:01:00,51.8,44.5,30.01,North,10,3.0,3.0,76,0.00,,CLR,0.00,VWS V14.01,2013-09-24 03:01:00,
2013-09-23 23:10:00,51.8,44.5,30.01,North,10,3.0,3.0,76,0.00,,CLR,0.00,VWS V14.01,2013-09-24 03:10:00,
2013-09-23 23:24:00,51.8,44.5,30.01,North,10,3.0,3.0,76,0.00,,CLR,0.00,VWS V14.01,2013-09-24 03:24:00,
2013-09-23 23:31:00,51.8,44.5,30.01,North,10,3.0,3.0,76,0.00,,CLR,0.00,VWS V14.01,2013-09-24 03:31:00,
2013-09-23 23:36:00,51.8,44.5,30.01,North,10,3.0,3.0,76,0.00,,CLR,0.00,VWS V14.01,2013-09-24 03:36:00,
2013-09-23 23:41:00,51.8,44.5,30.01,North,10,3.0,3.0,76,0.00,,CLR,0.00,VWS V14.01,2013-09-24 03:41:00,
2013-09-23 23:46:00,51.8,44.5,30.01,North,10,3.0,3.0,76,0.00,,CLR,0.00,VWS V14.01,2013-09-24 03:46:00,
2013-09-23 23:51:00,51.8,44.5,30.01,North,10,3.0,3.0,76,0.00,,CLR,0.00,VWS V14.01,2013-09-24 03:51:00,
2013-09-23 23:56:00,51.8,44.5,30.01,North,10,3.0,3.0,76,0.00,,CLR,0.00,VWS V14.01,2013-09-24 03:56:00,